Data for 05/11/2015

Time Sea-Level Adjusted Pressure Absolute Pressure Temperature Relative Humidity Dew Point   
(mb) (inHg) (mb) (inHg) (C) (F) (%) (C) (F)
00:05 1021 30.15 850 25.1 4.2 39.6 42 -7.5 18.5
00:10 1021 30.15 850 25.1 4.3 39.7 43 -7.4 18.7
00:15 1021 30.15 850 25.1 4.1 39.5 42 -7.5 18.4
00:20 1021 30.15 850 25.1 4.2 39.6 42 -7.6 18.2
00:25 1021 30.15 850 25.1 4 39.3 43 -7.5 18.5
00:30 1020 30.12 850 25.1 3.9 39.1 43 -7.4 18.7
00:35 1020 30.12 850 25.1 3.9 38.9 44 -7.4 18.7
00:40 1020 30.12 850 25.1 3.9 39 43 -7.5 18.6
00:45 1020 30.12 849 25.07 3.8 38.9 44 -7.3 18.9
00:50 1020 30.12 849 25.07 3.8 38.8 44 -7.3 18.8
00:55 1020 30.12 849 25.07 3.7 38.7 44 -7.3 18.9
01:00 1020 30.12 849 25.07 3.8 38.8 44 -7.4 18.8
01:05 1020 30.12 849 25.07 3.7 38.7 45 -7.2 19
01:10 1020 30.12 849 25.07 3.6 38.6 45 -7.3 18.9
01:15 1020 30.12 849 25.07 3.7 38.6 45 -7.2 19
01:20 1020 30.12 849 25.07 3.4 38.1 46 -7.1 19.2
01:25 1020 30.12 849 25.07 3.1 37.6 48 -7 19.4
01:30 1020 30.12 849 25.07 2.8 37 49 -6.9 19.5
01:35 1020 30.12 849 25.07 2.7 36.9 48 -7.2 19
01:40 1020 30.12 849 25.07 2.8 37 47 -7.3 18.9
01:45 1020 30.12 849 25.07 2.8 37 47 -7.5 18.5
01:50 1020 30.12 849 25.07 2.7 36.9 47 -7.5 18.5
01:55 1020 30.12 849 25.07 2.7 36.9 47 -7.6 18.4
02:00 1020 30.12 849 25.07 2.8 37 46 -7.7 18.2
02:05 1020 30.12 849 25.07 2.8 37.1 46 -7.6 18.3
02:10 1020 30.12 849 25.07 2.9 37.2 45 -7.8 18
02:15 1020 30.12 849 25.07 2.9 37.3 45 -7.8 18
02:20 1020 30.12 849 25.07 3 37.5 44 -8 17.6
02:25 1020 30.12 849 25.07 3.1 37.5 45 -7.7 18.2
02:30 1020 30.12 849 25.07 2.7 36.8 47 -7.6 18.4
02:35 1020 30.12 849 25.07 2.4 36.3 48 -7.4 18.7
02:40 1020 30.12 849 25.07 2.1 35.7 51 -7 19.4
02:45 1020 30.12 849 25.07 1.7 35.1 53 -7 19.5
02:50 1020 30.12 849 25.07 1.2 34.2 55 -6.9 19.6
02:55 1020 30.12 849 25.07 1.2 34.1 52 -7.5 18.5
03:00 1020 30.12 849 25.07 1.7 35 50 -7.7 18.1
03:05 1020 30.12 849 25.07 2.3 36.1 48 -7.6 18.3
03:10 1020 30.12 849 25.07 2.4 36.3 48 -7.7 18.2
03:15 1020 30.12 849 25.07 2.4 36.2 48 -7.6 18.4
03:20 1020 30.12 849 25.07 1.9 35.5 52 -6.9 19.5
03:25 1020 30.12 849 25.07 1.5 34.7 53 -7.1 19.1
03:30 1020 30.12 849 25.07 1.5 34.6 52 -7.3 18.8
03:35 1020 30.12 849 25.07 1.6 34.9 51 -7.5 18.6
03:40 1020 30.12 849 25.07 1.8 35.2 51 -7.4 18.8
03:45 1020 30.12 849 25.07 1.8 35.2 51 -7.4 18.7
03:50 1020 30.12 849 25.07 1.7 35.1 51 -7.3 18.9
03:55 1020 30.12 849 25.07 1.6 34.8 52 -7.3 18.8
04:00 1020 30.12 849 25.07 1.6 34.8 51 -7.4 18.7
04:05 1020 30.12 849 25.07 1.8 35.2 50 -7.6 18.3
04:10 1020 30.12 849 25.07 1.9 35.4 50 -7.5 18.6
04:15 1020 30.12 849 25.07 2 35.6 49 -7.5 18.5
04:20 1020 30.12 849 25.07 2.1 35.8 50 -7.3 18.9
04:25 1020 30.12 849 25.07 1.8 35.2 51 -7.5 18.6
04:30 1020 30.12 849 25.07 1.8 35.2 50 -7.6 18.3
04:35 1020 30.12 849 25.07 1.8 35.2 50 -7.5 18.5
04:40 1020 30.12 849 25.07 1.7 35 51 -7.5 18.6
04:45 1020 30.12 849 25.07 1.8 35.3 50 -7.4 18.6
04:50 1020 30.12 849 25.07 1.7 35 52 -7.2 19
04:55 1020 30.12 849 25.07 1.5 34.6 52 -7.3 18.9
05:00 1020 30.12 849 25.07 1.5 34.7 52 -7.4 18.7
05:05 1020 30.12 849 25.07 1.7 35.1 50 -7.5 18.5
05:10 1020 30.12 849 25.07 1.7 35 51 -7.3 18.8
05:15 1020 30.12 849 25.07 1.6 34.9 52 -7.2 19
05:20 1020 30.12 849 25.07 1.4 34.5 53 -7.1 19.2
05:25 1020 30.12 849 25.07 1.2 34.1 53 -7.2 19
05:30 1020 30.12 849 25.07 1.2 34.1 54 -7.2 19
05:35 1020 30.12 849 25.07 1.3 34.3 53 -7.3 18.8
05:40 1020 30.12 849 25.07 1.6 34.8 52 -7.2 19.1
05:45 1020 30.12 849 25.07 1.7 35.1 51 -7.3 18.8
05:50 1020 30.12 849 25.07 2 35.6 50 -7.4 18.7
05:55 1020 30.12 849 25.07 2.1 35.8 50 -7.3 18.9
06:00 1020 30.12 849 25.07 2.1 35.8 51 -6.9 19.6
06:05 1020 30.12 849 25.07 2.1 35.8 50 -7.1 19.2
06:10 1020 30.12 849 25.07 2.6 36.7 49 -7.2 19.1
06:15 1020 30.12 849 25.07 2.9 37.3 47 -7.4 18.6
06:20 1020 30.12 849 25.07 3.2 37.7 46 -7.4 18.8
06:25 1020 30.12 849 25.07 3.3 37.9 46 -7.3 18.9
06:30 1020 30.12 849 25.07 3.5 38.2 45 -7.3 18.8
06:35 1020 30.12 849 25.07 3.6 38.4 46 -7.1 19.2
06:40 1020 30.12 849 25.07 3.7 38.6 45 -7.3 18.9
06:45 1020 30.12 849 25.07 4 39.2 45 -7 19.4
06:50 1020 30.12 849 25.07 4.5 40.1 43 -7.1 19.2
06:55 1020 30.12 849 25.07 4.9 40.9 42 -7.1 19.3
07:00 1020 30.12 849 25.07 5.2 41.3 40 -7.3 18.9
07:05 1020 30.12 849 25.07 5.4 41.7 39 -7.4 18.7
07:10 1020 30.12 849 25.07 5.7 42.2 38 -7.6 18.4
07:15 1020 30.12 849 25.07 6.1 43 36 -7.7 18.1
07:20 1020 30.12 849 25.07 6.4 43.6 35 -8 17.6
07:25 1019 30.09 849 25.07 6.5 43.6 35 -7.9 17.9
07:30 1019 30.09 849 25.07 6.6 43.9 35 -7.9 17.8
07:35 1019 30.09 849 25.07 7.1 44.7 34 -7.7 18.2
07:40 1019 30.09 849 25.07 7.4 45.3 33 -7.7 18.1
07:45 1019 30.09 849 25.07 7.8 46.1 33 -7.6 18.3
07:50 1019 30.09 848 25.04 7.8 46.1 33 -7.4 18.8
07:55 1019 30.09 848 25.04 8.2 46.8 31 -7.8 18
08:00 1019 30.09 848 25.04 8.5 47.3 32 -7.4 18.7
08:05 1019 30.09 848 25.04 8.3 47 32 -7.5 18.4
08:10 1019 30.09 848 25.04 8.6 47.6 30 -7.8 18
08:15 1019 30.09 848 25.04 9.1 48.4 30 -7.8 18
08:20 1019 30.09 848 25.04 9 48.1 30 -7.9 17.9
08:25 1019 30.09 848 25.04 9.1 48.4 29 -7.9 17.7
08:30 1019 30.09 848 25.04 9.1 48.4 29 -8.1 17.3
08:35 1019 30.09 848 25.04 9.6 49.3 28 -7.9 17.7
08:40 1019 30.09 848 25.04 9.9 49.8 28 -7.6 18.4
08:45 1019 30.09 848 25.04 9.9 49.7 27 -8.1 17.4
08:50 1019 30.09 848 25.04 10.3 50.5 27 -8.1 17.5
08:55 1019 30.09 848 25.04 10.3 50.5 27 -8.1 17.4
09:00 1019 30.09 848 25.04 10.5 50.9 26 -8.2 17.2
09:05 1019 30.09 848 25.04 10.9 51.6 26 -7.7 18.1
09:10 1019 30.09 848 25.04 11.6 52.8 26 -7.3 18.9
09:15 1019 30.09 848 25.04 11.5 52.7 24 -8.2 17.3
09:20 1019 30.09 848 25.04 11.6 52.9 26 -7.1 19.2
09:25 1019 30.09 848 25.04 11.8 53.2 25 -7.5 18.5
09:30 1019 30.09 848 25.04 12.2 54 27 -6.2 20.8
09:35 1019 30.09 848 25.04 11.6 53 28 -6.1 21
09:40 1019 30.09 848 25.04 11.2 52.1 29 -6.2 20.9
09:45 1019 30.09 848 25.04 11.3 52.3 28 -6.3 20.6
09:50 1019 30.09 848 25.04 11.4 52.6 27 -6.8 19.8
09:55 1019 30.09 848 25.04 11.3 52.4 28 -6.4 20.4
10:00 1019 30.09 848 25.04 11.8 53.3 27 -6.4 20.4
10:05 1018 30.06 848 25.04 11 51.8 30 -5.7 21.7
10:10 1018 30.06 848 25.04 11.7 53.1 26 -7 19.4
10:15 1018 30.06 848 25.04 12.1 53.8 27 -6.2 20.9
10:20 1018 30.06 848 25.04 12 53.6 27 -6.5 20.3
10:25 1018 30.06 847 25.01 11.7 53.1 28 -6.2 20.9
10:30 1018 30.06 847 25.01 12.4 54.4 25 -6.8 19.8
10:35 1018 30.06 847 25.01 13.3 56 24 -6.8 19.7
10:40 1018 30.06 847 25.01 12.7 54.8 25 -6.8 19.7
10:45 1018 30.06 847 25.01 13.1 55.7 24 -6.9 19.6
10:50 1018 30.06 847 25.01 13.6 56.5 23 -7 19.4
10:55 1018 30.06 847 25.01 13.9 56.9 22 -7.6 18.3
11:00 1018 30.06 847 25.01 13.3 55.9 21 -8.3 17
11:05 1018 30.06 847 25.01 13.2 55.7 22 -8 17.7
11:10 1018 30.06 847 25.01 13.8 56.9 21 -8 17.6
11:15 1018 30.06 847 25.01 14.2 57.5 21 -8 17.6
11:20 1018 30.06 847 25.01 13.9 57 22 -7.2 19
11:25 1018 30.06 847 25.01 14 57.2 21 -8.1 17.4
11:30 1018 30.06 847 25.01 14.2 57.5 21 -7.6 18.2
11:35 1017 30.03 847 25.01 14.7 58.5 20 -8 17.6
11:40 1017 30.03 847 25.01 15 59 19 -8.2 17.3
11:45 1017 30.03 846 24.98 15.1 59.3 20 -7.8 18
11:50 1017 30.03 846 24.98 15.2 59.3 19 -8.3 17
11:55 1017 30.03 846 24.98 15.4 59.6 18 -8.8 16.2
12:00 1017 30.03 846 24.98 15.1 59.2 19 -8.4 16.9
12:05 1017 30.03 846 24.98 14.9 58.7 19 -8.7 16.3
12:10 1017 30.03 846 24.98 15.2 59.4 19 -8.2 17.2
12:15 1017 30.03 846 24.98 15.3 59.5 20 -7.6 18.3
12:20 1017 30.03 846 24.98 15.6 60 19 -7.9 17.8
12:25 1017 30.03 846 24.98 16.5 61.8 17 -8.2 17.2
12:30 1017 30.03 846 24.98 16.4 61.4 19 -7.5 18.6
12:35 1017 30.03 846 24.98 15.4 59.7 20 -7.7 18.1
12:40 1017 30.03 846 24.98 15.2 59.4 19 -8.3 17
12:45 1017 30.03 846 24.98 15.7 60.2 19 -7.6 18.3
12:50 1016 30 846 24.98 16.1 61 19 -7.7 18.2
12:55 1016 30 846 24.98 15.9 60.5 19 -7.9 17.9
13:00 1016 30 846 24.98 15.6 60.1 18 -8.5 16.7
13:05 1016 30 845 24.95 16.1 61.1 17 -8.6 16.6
13:10 1016 30 845 24.95 16.8 62.2 17 -8.2 17.3
13:15 1016 30 845 24.95 16.2 61.1 18 -8.4 16.9
13:20 1016 30 845 24.95 16.5 61.6 17 -8.8 16.1
13:25 1016 30 845 24.95 16.6 61.8 16 -8.9 16
13:30 1016 30 845 24.95 16.9 62.4 16 -8.7 16.4
13:35 1016 30 845 24.95 17.6 63.8 15 -8.9 16
13:40 1016 30 845 24.95 17.8 64.1 15 -9.3 15.3
13:45 1016 30 845 24.95 17.4 63.3 16 -8.7 16.3
13:50 1016 30 845 24.95 17.2 62.9 17 -8.2 17.3
13:55 1016 30 845 24.95 17.8 64 15 -8.7 16.3
14:00 1016 30 845 24.95 16.4 61.4 18 -8.1 17.5
14:05 1016 30 845 24.95 16.6 61.8 18 -7.8 18
14:10 1016 30 845 24.95 16.5 61.7 18 -7.7 18.2
14:15 1016 30 845 24.95 16.3 61.3 19 -7.5 18.5
14:20 1016 30 845 24.95 16.1 61.1 19 -7.6 18.4
14:25 1016 30 845 24.95 16 60.7 20 -7.1 19.2
14:30 1016 30 845 24.95 15.2 59.4 20 -7.3 18.9
14:35 1016 30 845 24.95 15.1 59.2 21 -7.3 18.9
14:40 1016 30 845 24.95 15.2 59.4 20 -7.6 18.4
14:45 1016 30 845 24.95 15.3 59.5 21 -7 19.5
14:50 1016 30 845 24.95 15 58.9 22 -6.4 20.5
14:55 1016 30 845 24.95 15.2 59.3 25 -4.6 23.8
15:00 1016 30 845 24.95 15.3 59.6 22 -6.1 21
15:05 1016 30 845 24.95 14.8 58.7 22 -6.4 20.5
15:10 1015 29.97 845 24.95 14.9 58.9 23 -6.2 20.8
15:15 1015 29.97 845 24.95 14.9 58.8 22 -6.4 20.5
15:20 1015 29.97 845 24.95 14.7 58.4 23 -5.9 21.3
15:25 1015 29.97 845 24.95 14.7 58.4 24 -5.6 21.9
15:30 1015 29.97 844 24.92 14.8 58.7 24 -5.6 22
15:35 1015 29.97 844 24.92 15.2 59.3 23 -5.8 21.5
15:40 1015 29.97 844 24.92 15.5 59.9 24 -4.9 23.1
15:45 1015 29.97 844 24.92 14.8 58.7 24 -5.6 21.9
15:50 1015 29.97 844 24.92 15 59 24 -5.4 22.3
15:55 1015 29.97 844 24.92 14.9 58.8 24 -5.2 22.6
16:00 1015 29.97 844 24.92 15.3 59.6 24 -5 23
16:05 1015 29.97 844 24.92 15.4 59.6 23 -5.5 22.1
16:10 1015 29.97 844 24.92 15.4 59.7 23 -5.7 21.8
16:15 1015 29.97 844 24.92 15.9 60.6 22 -5.9 21.3
16:20 1015 29.97 844 24.92 15.7 60.3 22 -5.7 21.7
16:25 1015 29.97 844 24.92 15.9 60.6 22 -5.9 21.3
16:30 1015 29.97 844 24.92 16 60.7 22 -5.6 22
16:35 1015 29.97 844 24.92 16.1 60.9 21 -6.3 20.7
16:40 1015 29.97 844 24.92 16 60.8 21 -6 21.2
16:45 1015 29.97 844 24.92 16.1 61 21 -6.4 20.5
16:50 1015 29.97 844 24.92 16.2 61.2 21 -5.9 21.3
16:55 1015 29.97 844 24.92 15.9 60.6 22 -5.8 21.5
17:00 1015 29.97 844 24.92 15.7 60.2 23 -5.5 22
17:05 1015 29.97 844 24.92 15.5 59.9 23 -5.7 21.7
17:10 1015 29.97 844 24.92 15.3 59.5 23 -5.7 21.7
17:15 1015 29.97 844 24.92 15.2 59.3 24 -5.4 22.2
17:20 1015 29.97 844 24.92 14.9 58.9 24 -5.6 21.9
17:25 1015 29.97 844 24.92 14.6 58.2 23 -6.3 20.7
17:30 1015 29.97 844 24.92 14.3 57.8 24 -6 21.1
17:35 1015 29.97 844 24.92 14.5 58.1 23 -6.1 21.1
17:40 1015 29.97 844 24.92 14.3 57.7 24 -6.2 20.8
17:45 1015 29.97 844 24.92 14.1 57.3 24 -6.1 21
17:50 1015 29.97 844 24.92 13.9 57 24 -6.4 20.6
17:55 1015 29.97 844 24.92 13.8 56.8 24 -6.3 20.6
18:00 1015 29.97 844 24.92 13.7 56.6 24 -6.4 20.5
18:05 1015 29.97 844 24.92 13.6 56.5 24 -6.6 20
18:10 1015 29.97 844 24.92 13.6 56.4 24 -6.4 20.6
18:15 1015 29.97 844 24.92 13.5 56.3 25 -6.2 20.8
18:20 1015 29.97 844 24.92 13.5 56.2 24 -6.6 20
18:25 1015 29.97 844 24.92 13.3 56 24 -6.7 19.9
18:30 1015 29.97 844 24.92 13.2 55.8 25 -6.5 20.2
18:35 1015 29.97 844 24.92 13.2 55.8 25 -6.5 20.4
18:40 1015 29.97 844 24.92 13.1 55.6 25 -6.4 20.4
18:45 1015 29.97 844 24.92 13.1 55.5 25 -6.7 19.9
18:50 1015 29.97 844 24.92 13 55.4 25 -6.7 19.9
18:55 1015 29.97 844 24.92 12.9 55.3 25 -6.4 20.5
19:00 1015 29.97 844 24.92 12.9 55.2 26 -6.3 20.7
19:05 1015 29.97 844 24.92 12.8 55.1 26 -6.1 21
19:10 1015 29.97 844 24.92 12.7 54.9 27 -6 21.3
19:15 1015 29.97 844 24.92 12.7 54.8 26 -6.1 21
19:20 1015 29.97 844 24.92 12.7 54.8 26 -6.3 20.6
19:25 1015 29.97 844 24.92 12.7 54.8 26 -6.4 20.5
19:30 1015 29.97 844 24.92 12.6 54.7 26 -6.1 21
19:35 1015 29.97 844 24.92 12.5 54.5 27 -6.1 21
19:40 1015 29.97 844 24.92 12.4 54.4 27 -6.1 21
19:45 1015 29.97 844 24.92 12.4 54.3 27 -6.1 21.1
19:50 1015 29.97 844 24.92 12.4 54.2 27 -6 21.1
19:55 1015 29.97 845 24.95 12.4 54.3 27 -6 21.2
20:00 1016 30 845 24.95 12.3 54.2 28 -5.8 21.5
20:05 1016 30 845 24.95 12.2 54 28 -5.9 21.3
20:10 1015 29.97 845 24.95 12.2 54 27 -6 21.3
20:15 1016 30 845 24.95 12.2 54 28 -5.6 21.9
20:20 1016 30 845 24.95 12.1 53.8 28 -5.7 21.7
20:25 1015 29.97 845 24.95 12.1 53.7 28 -5.9 21.4
20:30 1015 29.97 845 24.95 12.1 53.7 28 -5.7 21.8
20:35 1015 29.97 845 24.95 12 53.6 29 -5.6 21.9
20:40 1016 30 845 24.95 11.9 53.4 30 -5.2 22.7
20:45 1016 30 845 24.95 11.8 53.3 30 -5 23
20:50 1016 30 845 24.95 11.7 53.1 30 -5.3 22.5
20:55 1016 30 845 24.95 11.7 53 29 -5.9 21.3
21:00 1016 30 845 24.95 11.7 53.1 28 -6 21.3
21:05 1016 30 845 24.95 11.7 53.1 28 -6.1 21.1
21:10 1016 30 845 24.95 11.7 53 28 -6 21.2
21:15 1016 30 845 24.95 11.6 52.8 29 -5.7 21.7
21:20 1016 30 845 24.95 11.4 52.5 30 -5.6 22
21:25 1016 30 845 24.95 11.2 52.1 31 -5.2 22.7
21:30 1016 30 845 24.95 10.9 51.6 32 -5.3 22.5
21:35 1016 30 845 24.95 10.9 51.6 31 -5.4 22.2
21:40 1016 30 845 24.95 11 51.7 31 -5.7 21.8
21:45 1016 30 845 24.95 11 51.9 30 -5.8 21.5
21:50 1016 30 845 24.95 11.1 52 30 -5.7 21.7
21:55 1015 29.97 845 24.95 11.2 52.1 29 -6.4 20.6
22:00 1015 29.97 845 24.95 11.3 52.4 29 -6.1 20.9
22:05 1016 30 845 24.95 11.3 52.3 29 -6 21.2
22:10 1015 29.97 845 24.95 11.2 52.2 29 -6.2 20.8
22:15 1015 29.97 845 24.95 11.2 52.1 30 -5.9 21.4
22:20 1015 29.97 844 24.92 11 51.9 30 -6 21.1
22:25 1015 29.97 844 24.92 11 51.8 29 -6.1 21
22:30 1015 29.97 844 24.92 10.9 51.6 30 -6 21.1
22:35 1015 29.97 844 24.92 10.7 51.3 30 -6.1 21.1
22:40 1015 29.97 844 24.92 10.6 51 30 -6.3 20.6
22:45 1015 29.97 844 24.92 10.7 51.2 29 -6.5 20.2
22:50 1015 29.97 844 24.92 10.7 51.2 30 -6.4 20.5
22:55 1015 29.97 844 24.92 10.6 51 29 -6.7 19.9
23:00 1015 29.97 844 24.92 10.6 51 29 -6.7 19.9
23:05 1015 29.97 844 24.92 10.5 51 29 -6.9 19.6
23:10 1015 29.97 844 24.92 10.5 50.9 29 -6.8 19.8
23:15 1015 29.97 844 24.92 10.4 50.8 29 -7 19.4
23:20 1015 29.97 844 24.92 10.4 50.7 29 -7.1 19.2
23:25 1015 29.97 844 24.92 10.3 50.6 28 -7.2 19
23:30 1015 29.97 844 24.92 10.2 50.4 28 -7.3 18.9
23:35 1015 29.97 844 24.92 10.1 50.2 29 -7.3 18.8
23:40 1015 29.97 844 24.92 10.1 50.2 28 -7.8 18
23:45 1015 29.97 844 24.92 10.1 50.1 28 -7.5 18.4
23:50 1015 29.97 844 24.92 9.9 49.9 28 -7.8 18
23:55 1015 29.97 844 24.92 9.9 49.8 28 -7.7 18.1
24:00 1015 29.97 844 24.92 9.9 49.7 28 -7.7 18.1